Terminal Aerodrome Forecast
Issued by NWS Grand Forks, ND

Home | Current Version | Previous Version | Text Only | Print | Product List | Glossary On
Versions: 1 2 3 4 5 6 7 8 9 10 11 12 13 14 15 16 17 18
000
FTUS43 KFGF 262339
TAFGFK
TAF
KGFK 262339Z 2700/2724 32013KT P6SM SKC
     FM270300 31009KT P6SM SKC
     FM271500 33013KT P6SM SKC
     FM272200 35011KT P6SM FEW200=

USA.gov is the U.S. government's official web portal to all federal, state and local government web resources and services.